sensor_id;sensor_type;location;lat;lon;timestamp;pressure;altitude;pressure_sealevel;temperature;humidity
52949;BME280;38812;50.942;3.644;2023-02-24T00:01:41;101673.44;;;3.55;100.00
52949;BME280;38812;50.942;3.644;2023-02-24T00:04:11;101677.59;;;3.45;100.00
52949;BME280;38812;50.942;3.644;2023-02-24T00:06:39;101670.50;;;3.38;100.00
52949;BME280;38812;50.942;3.644;2023-02-24T00:09:14;101660.78;;;3.29;100.00
52949;BME280;38812;50.942;3.644;2023-02-24T00:11:43;101669.38;;;3.27;100.00
52949;BME280;38812;50.942;3.644;2023-02-24T00:14:12;101654.19;;;3.06;100.00
52949;BME280;38812;50.942;3.644;2023-02-24T00:16:40;101660.84;;;2.93;100.00
52949;BME280;38812;50.942;3.644;2023-02-24T00:19:06;101646.56;;;2.74;100.00
52949;BME280;38812;50.942;3.644;2023-02-24T00:21:33;101658.34;;;2.62;100.00
52949;BME280;38812;50.942;3.644;2023-02-24T00:23:58;101667.69;;;2.54;100.00
52949;BME280;38812;50.942;3.644;2023-02-24T00:26:24;101654.34;;;2.40;100.00
52949;BME280;38812;50.942;3.644;2023-02-24T00:28:50;101652.53;;;2.34;100.00
52949;BME280;38812;50.942;3.644;2023-02-24T00:31:17;101652.59;;;2.37;100.00
52949;BME280;38812;50.942;3.644;2023-02-24T00:33:44;101660.53;;;2.45;100.00
52949;BME280;38812;50.942;3.644;2023-02-24T00:36:15;101647.63;;;2.47;100.00
52949;BME280;38812;50.942;3.644;2023-02-24T00:38:41;101649.63;;;2.57;100.00
52949;BME280;38812;50.942;3.644;2023-02-24T00:41:15;101646.19;;;2.58;100.00
52949;BME280;38812;50.942;3.644;2023-02-24T00:43:42;101638.56;;;2.65;100.00
52949;BME280;38812;50.942;3.644;2023-02-24T00:46:11;101634.41;;;2.72;100.00
52949;BME280;38812;50.942;3.644;2023-02-24T00:48:38;101634.47;;;2.75;100.00
52949;BME280;38812;50.942;3.644;2023-02-24T00:51:09;101625.97;;;2.81;100.00
52949;BME280;38812;50.942;3.644;2023-02-24T00:53:38;101611.28;;;2.83;100.00
52949;BME280;38812;50.942;3.644;2023-02-24T00:56:07;101627.22;;;2.98;100.00
52949;BME280;38812;50.942;3.644;2023-02-24T00:58:39;101609.16;;;3.02;100.00
52949;BME280;38812;50.942;3.644;2023-02-24T01:01:13;101610.13;;;3.09;100.00
52949;BME280;38812;50.942;3.644;2023-02-24T01:03:39;101624.13;;;3.16;100.00
52949;BME280;38812;50.942;3.644;2023-02-24T01:06:05;101613.84;;;3.20;100.00
52949;BME280;38812;50.942;3.644;2023-02-24T01:08:31;101604.34;;;3.21;100.00
52949;BME280;38812;50.942;3.644;2023-02-24T01:11:01;101607.88;;;3.26;100.00
52949;BME280;38812;50.942;3.644;2023-02-24T01:13:45;101614.91;;;3.30;100.00
52949;BME280;38812;50.942;3.644;2023-02-24T01:16:11;101622.00;;;3.37;100.00
52949;BME280;38812;50.942;3.644;2023-02-24T01:18:39;101618.66;;;3.42;100.00
52949;BME280;38812;50.942;3.644;2023-02-24T01:21:05;101606.59;;;3.46;100.00
52949;BME280;38812;50.942;3.644;2023-02-24T01:23:30;101616.25;;;3.53;100.00
52949;BME280;38812;50.942;3.644;2023-02-24T01:25:56;101605.06;;;3.57;100.00
52949;BME280;38812;50.942;3.644;2023-02-24T01:28:25;101600.00;;;3.63;100.00
52949;BME280;38812;50.942;3.644;2023-02-24T01:30:52;101602.69;;;3.68;100.00
52949;BME280;38812;50.942;3.644;2023-02-24T01:33:18;101602.81;;;3.75;100.00
52949;BME280;38812;50.942;3.644;2023-02-24T01:35:43;101592.56;;;3.82;100.00
52949;BME280;38812;50.942;3.644;2023-02-24T01:38:09;101587.41;;;3.85;100.00
52949;BME280;38812;50.942;3.644;2023-02-24T01:40:36;101577.88;;;3.84;100.00
52949;BME280;38812;50.942;3.644;2023-02-24T01:43:02;101577.06;;;3.88;100.00
52949;BME280;38812;50.942;3.644;2023-02-24T01:45:34;101572.78;;;3.90;100.00
52949;BME280;38812;50.942;3.644;2023-02-24T01:48:07;101560.59;;;3.87;100.00
52949;BME280;38812;50.942;3.644;2023-02-24T01:50:35;101559.88;;;3.96;100.00
52949;BME280;38812;50.942;3.644;2023-02-24T01:53:03;101561.75;;;4.04;100.00
52949;BME280;38812;50.942;3.644;2023-02-24T01:55:42;101554.78;;;4.02;100.00
52949;BME280;38812;50.942;3.644;2023-02-24T01:58:19;101557.44;;;4.05;100.00
52949;BME280;38812;50.942;3.644;2023-02-24T02:00:45;101549.56;;;4.00;100.00
52949;BME280;38812;50.942;3.644;2023-02-24T02:03:30;101540.84;;;3.98;100.00
52949;BME280;38812;50.942;3.644;2023-02-24T02:06:02;101546.94;;;3.99;100.00
52949;BME280;38812;50.942;3.644;2023-02-24T02:08:28;101545.19;;;3.98;100.00
52949;BME280;38812;50.942;3.644;2023-02-24T02:11:03;101532.97;;;3.94;100.00
52949;BME280;38812;50.942;3.644;2023-02-24T02:13:31;101541.63;;;3.93;100.00
52949;BME280;38812;50.942;3.644;2023-02-24T02:16:24;101532.97;;;3.94;100.00
52949;BME280;38812;50.942;3.644;2023-02-24T02:24:51;101523.41;;;3.90;100.00
52949;BME280;38812;50.942;3.644;2023-02-24T02:32:41;101501.78;;;3.94;100.00
52949;BME280;38812;50.942;3.644;2023-02-24T02:35:26;101500.28;;;4.08;100.00
52949;BME280;38812;50.942;3.644;2023-02-24T02:38:01;101500.22;;;4.05;100.00
52949;BME280;38812;50.942;3.644;2023-02-24T02:40:38;101498.44;;;4.01;100.00
52949;BME280;38812;50.942;3.644;2023-02-24T02:43:19;101496.75;;;4.03;100.00
52949;BME280;38812;50.942;3.644;2023-02-24T02:46:00;101495.91;;;4.05;100.00
52949;BME280;38812;50.942;3.644;2023-02-24T02:48:48;101477.53;;;3.95;100.00
52949;BME280;38812;50.942;3.644;2023-02-24T02:51:29;101487.19;;;4.02;100.00
52949;BME280;38812;50.942;3.644;2023-02-24T02:56:51;101473.38;;;4.04;100.00
52949;BME280;38812;50.942;3.644;2023-02-24T02:59:22;101476.88;;;4.06;100.00
52949;BME280;38812;50.942;3.644;2023-02-24T03:01:52;101469.09;;;4.08;100.00
52949;BME280;38812;50.942;3.644;2023-02-24T03:04:21;101471.63;;;4.05;100.00
52949;BME280;38812;50.942;3.644;2023-02-24T03:06:54;101476.88;;;4.08;100.00
52949;BME280;38812;50.942;3.644;2023-02-24T03:09:27;101468.25;;;4.09;100.00
52949;BME280;38812;50.942;3.644;2023-02-24T03:11:57;101471.72;;;4.09;100.00
52949;BME280;38812;50.942;3.644;2023-02-24T03:14:28;101477.78;;;4.10;100.00
52949;BME280;38812;50.942;3.644;2023-02-24T03:16:58;101462.13;;;4.07;100.00
52949;BME280;38812;50.942;3.644;2023-02-24T03:19:28;101460.38;;;4.06;100.00
52949;BME280;38812;50.942;3.644;2023-02-24T03:24:31;101454.28;;;4.04;100.00
52949;BME280;38812;50.942;3.644;2023-02-24T03:27:10;101467.34;;;4.07;100.00
52949;BME280;38812;50.942;3.644;2023-02-24T03:29:52;101460.41;;;4.07;100.00
52949;BME280;38812;50.942;3.644;2023-02-24T03:32:30;101443.84;;;4.01;100.00
52949;BME280;38812;50.942;3.644;2023-02-24T03:35:13;101463.88;;;4.08;100.00
52949;BME280;38812;50.942;3.644;2023-02-24T03:37:41;101465.59;;;4.06;100.00
52949;BME280;38812;50.942;3.644;2023-02-24T03:40:09;101454.31;;;4.05;100.00
52949;BME280;38812;50.942;3.644;2023-02-24T03:42:37;101442.09;;;4.00;100.00
52949;BME280;38812;50.942;3.644;2023-02-24T03:45:04;101445.66;;;4.06;100.00
52949;BME280;38812;50.942;3.644;2023-02-24T03:47:31;101442.13;;;4.03;100.00
52949;BME280;38812;50.942;3.644;2023-02-24T03:49:57;101438.66;;;4.02;100.00
52949;BME280;38812;50.942;3.644;2023-02-24T04:08:40;101421.81;;;3.77;100.00
52949;BME280;38812;50.942;3.644;2023-02-24T04:14:02;101427.00;;;3.77;100.00
52949;BME280;38812;50.942;3.644;2023-02-24T04:16:40;101413.88;;;3.70;100.00
52949;BME280;38812;50.942;3.644;2023-02-24T04:19:13;101417.34;;;3.67;100.00
52949;BME280;38812;50.942;3.644;2023-02-24T04:21:42;101418.03;;;3.57;100.00
52949;BME280;38812;50.942;3.644;2023-02-24T04:24:10;101411.88;;;3.52;100.00
52949;BME280;38812;50.942;3.644;2023-02-24T04:26:44;101404.78;;;3.42;100.00
52949;BME280;38812;50.942;3.644;2023-02-24T04:29:15;101407.28;;;3.36;100.00
52949;BME280;38812;50.942;3.644;2023-02-24T04:31:47;101391.31;;;3.15;100.00
52949;BME280;38812;50.942;3.644;2023-02-24T04:34:14;101392.78;;;3.00;100.00
52949;BME280;38812;50.942;3.644;2023-02-24T04:36:45;101398.56;;;2.86;100.00
52949;BME280;38812;50.942;3.644;2023-02-24T04:39:15;101396.53;;;2.69;100.00
52949;BME280;38812;50.942;3.644;2023-02-24T04:41:46;101382.22;;;2.46;100.00
52949;BME280;38812;50.942;3.644;2023-02-24T04:44:19;101391.53;;;2.36;100.00
52949;BME280;38812;50.942;3.644;2023-02-24T04:46:46;101400.06;;;2.31;100.00
52949;BME280;38812;50.942;3.644;2023-02-24T04:49:14;101398.19;;;2.25;100.00
52949;BME280;38812;50.942;3.644;2023-02-24T04:51:40;101391.31;;;2.27;100.00
52949;BME280;38812;50.942;3.644;2023-02-24T04:54:13;101390.34;;;2.22;100.00
52949;BME280;38812;50.942;3.644;2023-02-24T04:56:41;101389.25;;;2.11;100.00
52949;BME280;38812;50.942;3.644;2023-02-24T04:59:09;101386.38;;;1.99;100.00
52949;BME280;38812;50.942;3.644;2023-02-24T05:01:36;101382.66;;;1.86;100.00
52949;BME280;38812;50.942;3.644;2023-02-24T05:04:07;101377.25;;;1.77;100.00
52949;BME280;38812;50.942;3.644;2023-02-24T05:06:33;101371.06;;;1.70;100.00
52949;BME280;38812;50.942;3.644;2023-02-24T05:08:59;101363.97;;;1.63;100.00
52949;BME280;38812;50.942;3.644;2023-02-24T05:11:26;101352.69;;;1.60;100.00
52949;BME280;38812;50.942;3.644;2023-02-24T05:13:51;101355.03;;;1.49;100.00
52949;BME280;38812;50.942;3.644;2023-02-24T05:16:18;101353.97;;;1.41;100.00
52949;BME280;38812;50.942;3.644;2023-02-24T05:18:44;101346.03;;;1.35;100.00
52949;BME280;38812;50.942;3.644;2023-02-24T05:21:12;101358.06;;;1.33;100.00
52949;BME280;38812;50.942;3.644;2023-02-24T05:23:57;101344.91;;;1.24;100.00
52949;BME280;38812;50.942;3.644;2023-02-24T05:26:24;101357.19;;;1.32;100.00
52949;BME280;38812;50.942;3.644;2023-02-24T05:28:52;101352.09;;;1.35;100.00
52949;BME280;38812;50.942;3.644;2023-02-24T05:31:20;101344.44;;;1.40;100.00
52949;BME280;38812;50.942;3.644;2023-02-24T05:33:48;101334.25;;;1.46;100.00
52949;BME280;38812;50.942;3.644;2023-02-24T05:36:18;101326.63;;;1.54;100.00
52949;BME280;38812;50.942;3.644;2023-02-24T05:38:49;101341.63;;;1.67;100.00
52949;BME280;38812;50.942;3.644;2023-02-24T05:41:20;101334.66;;;1.64;100.00
52949;BME280;38812;50.942;3.644;2023-02-24T05:43:51;101332.94;;;1.65;100.00
52949;BME280;38812;50.942;3.644;2023-02-24T05:46:27;101338.00;;;1.60;100.00
52949;BME280;38812;50.942;3.644;2023-02-24T05:48:56;101334.59;;;1.61;100.00
52949;BME280;38812;50.942;3.644;2023-02-24T05:51:23;101328.59;;;1.64;100.00
52949;BME280;38812;50.942;3.644;2023-02-24T05:53:52;101320.66;;;1.56;100.00
52949;BME280;38812;50.942;3.644;2023-02-24T05:56:23;101318.75;;;1.48;100.00
52949;BME280;38812;50.942;3.644;2023-02-24T05:58:50;101330.09;;;1.54;100.00
52949;BME280;38812;50.942;3.644;2023-02-24T06:01:29;101324.16;;;1.58;100.00
52949;BME280;38812;50.942;3.644;2023-02-24T06:04:00;101332.56;;;1.48;100.00
52949;BME280;38812;50.942;3.644;2023-02-24T06:06:37;101327.22;;;1.42;100.00
52949;BME280;38812;50.942;3.644;2023-02-24T06:09:06;101327.38;;;1.48;100.00
52949;BME280;38812;50.942;3.644;2023-02-24T06:11:33;101331.00;;;1.56;100.00
52949;BME280;38812;50.942;3.644;2023-02-24T06:13:59;101321.47;;;1.55;100.00
52949;BME280;38812;50.942;3.644;2023-02-24T06:16:24;101325.91;;;1.59;100.00
52949;BME280;38812;50.942;3.644;2023-02-24T06:18:53;101313.78;;;1.58;100.00
52949;BME280;38812;50.942;3.644;2023-02-24T06:21:22;101314.84;;;1.66;100.00
52949;BME280;38812;50.942;3.644;2023-02-24T06:23:48;101309.66;;;1.66;100.00
52949;BME280;38812;50.942;3.644;2023-02-24T06:26:13;101310.66;;;1.71;100.00
52949;BME280;38812;50.942;3.644;2023-02-24T06:28:44;101305.38;;;1.67;100.00
52949;BME280;38812;50.942;3.644;2023-02-24T06:31:11;101296.47;;;1.56;100.00
52949;BME280;38812;50.942;3.644;2023-02-24T06:33:38;101307.63;;;1.53;100.00
52949;BME280;38812;50.942;3.644;2023-02-24T06:36:05;101322.13;;;1.45;100.00
52949;BME280;38812;50.942;3.644;2023-02-24T06:38:32;101313.25;;;1.35;100.00
52949;BME280;38812;50.942;3.644;2023-02-24T06:40:59;101301.81;;;1.26;100.00
52949;BME280;38812;50.942;3.644;2023-02-24T06:43:31;101298.09;;;1.15;100.00
52949;BME280;38812;50.942;3.644;2023-02-24T06:45:56;101298.75;;;1.06;100.00
52949;BME280;38812;50.942;3.644;2023-02-24T06:48:21;101295.13;;;0.99;100.00
52949;BME280;38812;50.942;3.644;2023-02-24T06:50:48;101278.41;;;0.87;100.00
52949;BME280;38812;50.942;3.644;2023-02-24T06:53:15;101285.47;;;0.92;100.00
52949;BME280;38812;50.942;3.644;2023-02-24T06:55:44;101288.13;;;0.95;100.00
52949;BME280;38812;50.942;3.644;2023-02-24T06:58:19;101282.88;;;0.92;100.00
52949;BME280;38812;50.942;3.644;2023-02-24T07:00:45;101275.13;;;0.92;100.00
52949;BME280;38812;50.942;3.644;2023-02-24T07:03:25;101266.41;;;0.89;100.00
52949;BME280;38812;50.942;3.644;2023-02-24T07:06:08;101271.72;;;0.95;100.00
52949;BME280;38812;50.942;3.644;2023-02-24T07:08:48;101270.13;;;1.00;100.00
52949;BME280;38812;50.942;3.644;2023-02-24T07:11:14;101267.59;;;1.01;100.00
52949;BME280;38812;50.942;3.644;2023-02-24T07:13:44;101281.53;;;1.07;100.00
52949;BME280;38812;50.942;3.644;2023-02-24T07:16:12;101283.28;;;1.08;100.00
52949;BME280;38812;50.942;3.644;2023-02-24T07:18:41;101277.16;;;1.04;100.00
52949;BME280;38812;50.942;3.644;2023-02-24T07:21:08;101259.63;;;0.94;100.00
52949;BME280;38812;50.942;3.644;2023-02-24T07:23:39;101269.47;;;1.09;100.00
52949;BME280;38812;50.942;3.644;2023-02-24T07:26:10;101276.63;;;1.19;100.00
52949;BME280;38812;50.942;3.644;2023-02-24T07:28:41;101268.25;;;1.29;100.00
52949;BME280;38812;50.942;3.644;2023-02-24T07:31:09;101261.84;;;1.52;100.00
52949;BME280;38812;50.942;3.644;2023-02-24T07:33:37;101257.13;;;1.73;100.00
52949;BME280;38812;50.942;3.644;2023-02-24T07:36:05;101254.19;;;1.97;100.00
52949;BME280;38812;50.942;3.644;2023-02-24T07:38:39;101231.19;;;2.13;100.00
52949;BME280;38812;50.942;3.644;2023-02-24T07:41:06;101233.38;;;2.36;100.00
52949;BME280;38812;50.942;3.644;2023-02-24T07:43:33;101241.53;;;2.58;100.00
52949;BME280;38812;50.942;3.644;2023-02-24T07:46:13;101240.00;;;2.70;100.00
52949;BME280;38812;50.942;3.644;2023-02-24T07:48:40;101244.50;;;2.79;100.00
52949;BME280;38812;50.942;3.644;2023-02-24T07:51:13;101245.53;;;2.90;100.00
52949;BME280;38812;50.942;3.644;2023-02-24T07:53:40;101240.50;;;2.99;100.00
52949;BME280;38812;50.942;3.644;2023-02-24T07:56:07;101237.19;;;3.09;100.00
52949;BME280;38812;50.942;3.644;2023-02-24T07:58:40;101238.19;;;3.18;100.00
52949;BME280;38812;50.942;3.644;2023-02-24T08:01:07;101240.88;;;3.25;100.00
52949;BME280;38812;50.942;3.644;2023-02-24T08:03:34;101239.31;;;3.35;100.00
52949;BME280;38812;50.942;3.644;2023-02-24T08:06:02;101238.59;;;3.47;100.00
52949;BME280;38812;50.942;3.644;2023-02-24T08:08:42;101242.22;;;3.56;100.00
52949;BME280;38812;50.942;3.644;2023-02-24T08:11:28;101240.63;;;3.66;100.00
52949;BME280;38812;50.942;3.644;2023-02-24T08:14:00;101236.56;;;3.88;100.00
52949;BME280;38812;50.942;3.644;2023-02-24T08:16:29;101236.63;;;3.94;100.00
52949;BME280;38812;50.942;3.644;2023-02-24T08:19:05;101231.56;;;4.04;100.00
52949;BME280;38812;50.942;3.644;2023-02-24T08:21:30;101225.63;;;4.18;100.00
52949;BME280;38812;50.942;3.644;2023-02-24T08:24:05;101229.25;;;4.29;100.00
52949;BME280;38812;50.942;3.644;2023-02-24T08:26:31;101226.72;;;4.39;100.00
52949;BME280;38812;50.942;3.644;2023-02-24T08:28:57;101226.75;;;4.41;100.00
52949;BME280;38812;50.942;3.644;2023-02-24T08:31:22;101218.19;;;4.50;100.00
52949;BME280;38812;50.942;3.644;2023-02-24T08:33:48;101200.88;;;4.58;100.00
52949;BME280;38812;50.942;3.644;2023-02-24T08:36:15;101204.50;;;4.72;100.00
52949;BME280;38812;50.942;3.644;2023-02-24T08:38:45;101202.91;;;4.89;100.00
52949;BME280;38812;50.942;3.644;2023-02-24T08:41:17;101183.88;;;4.99;100.00
52949;BME280;38812;50.942;3.644;2023-02-24T08:43:46;101187.50;;;5.23;100.00
52949;BME280;38812;50.942;3.644;2023-02-24T08:48:57;101173.84;;;5.71;100.00
52949;BME280;38812;50.942;3.644;2023-02-24T08:51:31;101180.94;;;5.95;100.00
52949;BME280;38812;50.942;3.644;2023-02-24T08:54:04;101163.53;;;5.94;100.00
52949;BME280;38812;50.942;3.644;2023-02-24T08:56:35;101166.19;;;6.09;100.00
52949;BME280;38812;50.942;3.644;2023-02-24T08:59:08;101159.16;;;5.90;100.00
52949;BME280;38812;50.942;3.644;2023-02-24T09:01:40;101149.69;;;6.14;100.00
52949;BME280;38812;50.942;3.644;2023-02-24T09:04:16;101147.06;;;6.01;100.00
52949;BME280;38812;50.942;3.644;2023-02-24T09:06:44;101146.19;;;6.14;100.00
52949;BME280;38812;50.942;3.644;2023-02-24T09:09:16;101147.09;;;6.27;100.00
52949;BME280;38812;50.942;3.644;2023-02-24T09:11:51;101148.84;;;6.23;100.00
52949;BME280;38812;50.942;3.644;2023-02-24T09:14:22;101139.28;;;6.40;100.00
52949;BME280;38812;50.942;3.644;2023-02-24T09:16:50;101127.97;;;6.53;100.00
52949;BME280;38812;50.942;3.644;2023-02-24T09:19:34;101128.84;;;6.60;100.00
52949;BME280;38812;50.942;3.644;2023-02-24T09:22:17;101131.44;;;6.65;100.00
52949;BME280;38812;50.942;3.644;2023-02-24T09:25:10;101127.94;;;6.50;100.00
52949;BME280;38812;50.942;3.644;2023-02-24T09:28:05;101114.03;;;6.54;100.00
52949;BME280;38812;50.942;3.644;2023-02-24T09:30:36;101117.50;;;6.55;100.00
52949;BME280;38812;50.942;3.644;2023-02-24T09:33:17;101104.47;;;6.57;100.00
52949;BME280;38812;50.942;3.644;2023-02-24T09:36:03;101103.59;;;6.54;100.00
52949;BME280;38812;50.942;3.644;2023-02-24T09:38:37;101100.13;;;6.69;100.00
52949;BME280;38812;50.942;3.644;2023-02-24T09:41:44;101108.81;;;6.54;100.00
52949;BME280;38812;50.942;3.644;2023-02-24T09:44:32;101103.63;;;6.45;100.00
52949;BME280;38812;50.942;3.644;2023-02-24T09:47:09;101083.59;;;6.31;100.00
52949;BME280;38812;50.942;3.644;2023-02-24T09:52:13;101102.72;;;6.16;100.00
52949;BME280;38812;50.942;3.644;2023-02-24T09:54:47;101094.91;;;6.16;100.00
52949;BME280;38812;50.942;3.644;2023-02-24T09:57:37;101090.56;;;6.15;100.00
52949;BME280;38812;50.942;3.644;2023-02-24T10:00:21;101088.81;;;6.17;100.00
52949;BME280;38812;50.942;3.644;2023-02-24T10:06:09;101091.44;;;6.26;100.00
52949;BME280;38812;50.942;3.644;2023-02-24T10:08:41;101088.81;;;6.17;100.00
52949;BME280;38812;50.942;3.644;2023-02-24T10:11:11;101090.56;;;6.39;100.00
52949;BME280;38812;50.942;3.644;2023-02-24T10:13:46;101075.78;;;6.43;100.00
52949;BME280;38812;50.942;3.644;2023-02-24T10:16:16;101088.81;;;6.53;100.00
52949;BME280;38812;50.942;3.644;2023-02-24T10:19:05;101090.53;;;6.58;100.00
52949;BME280;38812;50.942;3.644;2023-02-24T10:21:53;101088.84;;;6.47;100.00
52949;BME280;38812;50.942;3.644;2023-02-24T10:27:13;101080.09;;;6.58;100.00
52949;BME280;38812;50.942;3.644;2023-02-24T10:35:00;101069.66;;;6.51;100.00
52949;BME280;38812;50.942;3.644;2023-02-24T10:37:27;101066.22;;;6.49;100.00
52949;BME280;38812;50.942;3.644;2023-02-24T10:39:58;101057.47;;;6.58;100.00
52949;BME280;38812;50.942;3.644;2023-02-24T10:42:30;101058.34;;;6.59;100.00
52949;BME280;38812;50.942;3.644;2023-02-24T10:47:56;101048.78;;;6.51;100.00
52949;BME280;38812;50.942;3.644;2023-02-24T10:50:32;101042.69;;;6.69;100.00
52949;BME280;38812;50.942;3.644;2023-02-24T10:53:17;101048.75;;;6.79;100.00
52949;BME280;38812;50.942;3.644;2023-02-24T10:56:10;101047.69;;;7.33;100.00
52949;BME280;38812;50.942;3.644;2023-02-24T11:01:59;101053.72;;;7.49;100.00
52949;BME280;38812;50.942;3.644;2023-02-24T11:04:38;101049.06;;;7.94;100.00
52949;BME280;38812;50.942;3.644;2023-02-24T11:07:29;101050.69;;;8.08;100.00
52949;BME280;38812;50.942;3.644;2023-02-24T11:10:11;101029.75;;;8.13;100.00
52949;BME280;38812;50.942;3.644;2023-02-24T11:12:45;101037.72;;;7.96;100.00
52949;BME280;38812;50.942;3.644;2023-02-24T11:15:37;101021.06;;;8.06;100.00
52949;BME280;38812;50.942;3.644;2023-02-24T11:18:26;101006.75;;;8.50;100.00
52949;BME280;38812;50.942;3.644;2023-02-24T11:20:56;100998.28;;;8.22;100.00
52949;BME280;38812;50.942;3.644;2023-02-24T11:23:27;100985.97;;;8.29;100.00
52949;BME280;38812;50.942;3.644;2023-02-24T11:25:58;100988.00;;;7.98;100.00
52949;BME280;38812;50.942;3.644;2023-02-24T11:28:43;100977.47;;;8.05;100.00
52949;BME280;38812;50.942;3.644;2023-02-24T11:41:48;100958.41;;;7.91;100.00
52949;BME280;38812;50.942;3.644;2023-02-24T11:44:31;100969.75;;;7.91;100.00
52949;BME280;38812;50.942;3.644;2023-02-24T11:47:07;100959.13;;;8.07;100.00
52949;BME280;38812;50.942;3.644;2023-02-24T11:49:41;100970.59;;;7.94;100.00
52949;BME280;38812;50.942;3.644;2023-02-24T11:52:15;100953.81;;;8.19;100.00
52949;BME280;38812;50.942;3.644;2023-02-24T11:54:47;100960.13;;;7.92;100.00
52949;BME280;38812;50.942;3.644;2023-02-24T11:57:27;100946.22;;;7.90;100.00
52949;BME280;38812;50.942;3.644;2023-02-24T12:00:18;100937.53;;;7.82;100.00
52949;BME280;38812;50.942;3.644;2023-02-24T12:03:05;100948.66;;;8.10;100.00
52949;BME280;38812;50.942;3.644;2023-02-24T12:05:38;100940.88;;;8.85;100.00
52949;BME280;38812;50.942;3.644;2023-02-24T12:08:27;100928.44;;;9.02;100.00
52949;BME280;38812;50.942;3.644;2023-02-24T12:11:05;100929.88;;;9.80;100.00
52949;BME280;38812;50.942;3.644;2023-02-24T12:13:47;100937.72;;;9.81;100.00
52949;BME280;38812;50.942;3.644;2023-02-24T12:16:26;100938.66;;;9.20;100.00
52949;BME280;38812;50.942;3.644;2023-02-24T12:19:36;100936.31;;;9.59;100.00
52949;BME280;38812;50.942;3.644;2023-02-24T12:22:14;100925.91;;;9.53;100.00
52949;BME280;38812;50.942;3.644;2023-02-24T12:24:43;100915.25;;;9.65;100.00
52949;BME280;38812;50.942;3.644;2023-02-24T12:34:51;100889.63;;;9.28;100.00
52949;BME280;38812;50.942;3.644;2023-02-24T12:37:41;100896.44;;;9.39;100.00
52949;BME280;38812;50.942;3.644;2023-02-24T12:42:59;100896.94;;;9.05;100.00
52949;BME280;38812;50.942;3.644;2023-02-24T12:48:36;100898.09;;;8.86;100.00
52949;BME280;38812;50.942;3.644;2023-02-24T12:56:40;100886.00;;;8.74;100.00
52949;BME280;38812;50.942;3.644;2023-02-24T12:59:13;100887.75;;;8.74;100.00
52949;BME280;38812;50.942;3.644;2023-02-24T13:14:51;100885.19;;;7.86;100.00
52949;BME280;38812;50.942;3.644;2023-02-24T13:17:23;100883.47;;;7.84;100.00
52949;BME280;38812;50.942;3.644;2023-02-24T13:19:51;100884.31;;;7.87;100.00
52949;BME280;38812;50.942;3.644;2023-02-24T13:22:24;100884.44;;;7.75;100.00
52949;BME280;38812;50.942;3.644;2023-02-24T13:27:31;100870.59;;;7.64;100.00
52949;BME280;38812;50.942;3.644;2023-02-24T13:32:45;100860.31;;;7.41;100.00
52949;BME280;38812;50.942;3.644;2023-02-24T13:37:41;100862.91;;;7.44;100.00
52949;BME280;38812;50.942;3.644;2023-02-24T13:45:38;100853.41;;;7.36;100.00
52949;BME280;38812;50.942;3.644;2023-02-24T13:53:45;100860.44;;;7.25;100.00
52949;BME280;38812;50.942;3.644;2023-02-24T13:59:11;100836.19;;;7.07;100.00
52949;BME280;38812;50.942;3.644;2023-02-24T14:05:15;100843.16;;;7.05;100.00
52949;BME280;38812;50.942;3.644;2023-02-24T14:07:42;100830.16;;;6.98;100.00
52949;BME280;38812;50.942;3.644;2023-02-24T14:10:16;100832.84;;;6.87;100.00
52949;BME280;38812;50.942;3.644;2023-02-24T14:12:44;100836.25;;;6.95;100.00
52949;BME280;38812;50.942;3.644;2023-02-24T14:15:18;100844.97;;;6.94;100.00
52949;BME280;38812;50.942;3.644;2023-02-24T14:17:54;100837.22;;;6.83;100.00
52949;BME280;38812;50.942;3.644;2023-02-24T14:20:20;100831.03;;;6.95;100.00
52949;BME280;38812;50.942;3.644;2023-02-24T14:22:52;100830.16;;;6.98;100.00
52949;BME280;38812;50.942;3.644;2023-02-24T14:25:19;100827.63;;;6.84;100.00
52949;BME280;38812;50.942;3.644;2023-02-24T14:27:48;100829.47;;;6.70;100.00
52949;BME280;38812;50.942;3.644;2023-02-24T14:30:33;100826.88;;;6.68;100.00
52949;BME280;38812;50.942;3.644;2023-02-24T14:32:59;100827.75;;;6.69;100.00
52949;BME280;38812;50.942;3.644;2023-02-24T14:35:34;100835.59;;;6.66;100.00
52949;BME280;38812;50.942;3.644;2023-02-24T14:38:00;100833.84;;;6.68;100.00
52949;BME280;38812;50.942;3.644;2023-02-24T14:40:26;100842.56;;;6.64;100.00
52949;BME280;38812;50.942;3.644;2023-02-24T14:42:53;100838.22;;;6.60;100.00
52949;BME280;38812;50.942;3.644;2023-02-24T14:45:22;100832.97;;;6.63;100.00
52949;BME280;38812;50.942;3.644;2023-02-24T14:47:50;100832.88;;;6.78;100.00
52949;BME280;38812;50.942;3.644;2023-02-24T14:50:17;100837.25;;;6.77;100.00
52949;BME280;38812;50.942;3.644;2023-02-24T14:53:07;100836.25;;;6.95;100.00
52949;BME280;38812;50.942;3.644;2023-02-24T14:55:40;100829.28;;;6.94;100.00
52949;BME280;38812;50.942;3.644;2023-02-24T14:58:23;100831.03;;;6.95;100.00
52949;BME280;38812;50.942;3.644;2023-02-24T15:01:04;100824.94;;;6.95;100.00
52949;BME280;38812;50.942;3.644;2023-02-24T15:03:58;100819.69;;;6.99;100.00
52949;BME280;38812;50.942;3.644;2023-02-24T15:06:26;100828.41;;;7.00;100.00
52949;BME280;38812;50.942;3.644;2023-02-24T15:08:59;100823.16;;;7.04;100.00
52949;BME280;38812;50.942;3.644;2023-02-24T15:11:28;100815.31;;;7.04;100.00
52949;BME280;38812;50.942;3.644;2023-02-24T15:13:57;100817.00;;;7.14;100.00
52949;BME280;38812;50.942;3.644;2023-02-24T15:16:44;100804.75;;;7.19;100.00
52949;BME280;38812;50.942;3.644;2023-02-24T15:21:46;100811.53;;;7.39;100.00
52949;BME280;38812;50.942;3.644;2023-02-24T15:24:28;100808.00;;;7.46;100.00
52949;BME280;38812;50.942;3.644;2023-02-24T15:27:01;100806.28;;;7.45;100.00